sensor_id;sensor_type;location;lat;lon;timestamp;temperature;humidity
16417;DHT22;8317;52.186;5.688;2022-08-01T00:02:17;19.10;99.90
16417;DHT22;8317;52.186;5.688;2022-08-01T00:04:44;19.30;99.90
16417;DHT22;8317;52.186;5.688;2022-08-01T00:07:11;19.20;99.90
16417;DHT22;8317;52.186;5.688;2022-08-01T00:09:38;19.10;99.90
16417;DHT22;8317;52.186;5.688;2022-08-01T00:12:05;19.20;99.90
16417;DHT22;8317;52.186;5.688;2022-08-01T00:14:32;19.10;99.90
16417;DHT22;8317;52.186;5.688;2022-08-01T00:16:59;19.10;99.90
16417;DHT22;8317;52.186;5.688;2022-08-01T00:19:27;19.20;99.90
16417;DHT22;8317;52.186;5.688;2022-08-01T00:21:54;19.00;99.90
16417;DHT22;8317;52.186;5.688;2022-08-01T00:24:21;19.10;99.90
16417;DHT22;8317;52.186;5.688;2022-08-01T00:26:48;19.00;99.90
16417;DHT22;8317;52.186;5.688;2022-08-01T00:29:14;19.00;99.90
16417;DHT22;8317;52.186;5.688;2022-08-01T00:31:41;19.00;99.90
16417;DHT22;8317;52.186;5.688;2022-08-01T00:34:08;19.10;99.90
16417;DHT22;8317;52.186;5.688;2022-08-01T00:36:36;19.00;99.90
16417;DHT22;8317;52.186;5.688;2022-08-01T00:39:03;19.30;99.90
16417;DHT22;8317;52.186;5.688;2022-08-01T00:41:30;19.20;99.90
16417;DHT22;8317;52.186;5.688;2022-08-01T00:43:57;19.00;99.90
16417;DHT22;8317;52.186;5.688;2022-08-01T00:46:24;19.00;99.90
16417;DHT22;8317;52.186;5.688;2022-08-01T00:48:51;18.90;99.90
16417;DHT22;8317;52.186;5.688;2022-08-01T00:51:18;19.00;99.90
16417;DHT22;8317;52.186;5.688;2022-08-01T00:53:47;19.10;99.90
16417;DHT22;8317;52.186;5.688;2022-08-01T00:56:14;19.10;99.90
16417;DHT22;8317;52.186;5.688;2022-08-01T00:58:41;19.00;99.90
16417;DHT22;8317;52.186;5.688;2022-08-01T01:01:08;19.00;99.90
16417;DHT22;8317;52.186;5.688;2022-08-01T01:03:35;18.90;99.90
16417;DHT22;8317;52.186;5.688;2022-08-01T01:06:13;19.10;99.90
16417;DHT22;8317;52.186;5.688;2022-08-01T01:08:45;19.20;99.90
16417;DHT22;8317;52.186;5.688;2022-08-01T01:11:21;18.90;99.90
16417;DHT22;8317;52.186;5.688;2022-08-01T01:13:55;19.00;99.90
16417;DHT22;8317;52.186;5.688;2022-08-01T01:16:24;18.90;99.90
16417;DHT22;8317;52.186;5.688;2022-08-01T01:18:55;19.10;99.90
16417;DHT22;8317;52.186;5.688;2022-08-01T01:24:39;18.90;99.90
16417;DHT22;8317;52.186;5.688;2022-08-01T01:27:18;18.90;99.90
16417;DHT22;8317;52.186;5.688;2022-08-01T01:29:51;18.80;99.90
16417;DHT22;8317;52.186;5.688;2022-08-01T01:32:24;18.90;99.90
16417;DHT22;8317;52.186;5.688;2022-08-01T01:34:54;18.90;99.90
16417;DHT22;8317;52.186;5.688;2022-08-01T01:37:23;18.90;99.90
16417;DHT22;8317;52.186;5.688;2022-08-01T01:39:53;18.80;99.90
16417;DHT22;8317;52.186;5.688;2022-08-01T01:42:21;18.70;99.90
16417;DHT22;8317;52.186;5.688;2022-08-01T01:44:51;18.90;99.90
16417;DHT22;8317;52.186;5.688;2022-08-01T01:47:19;18.80;99.90
16417;DHT22;8317;52.186;5.688;2022-08-01T01:49:47;18.70;99.90
16417;DHT22;8317;52.186;5.688;2022-08-01T01:52:16;18.70;99.90
16417;DHT22;8317;52.186;5.688;2022-08-01T01:54:46;18.70;99.90
16417;DHT22;8317;52.186;5.688;2022-08-01T01:57:14;18.70;99.90
16417;DHT22;8317;52.186;5.688;2022-08-01T01:59:42;18.70;99.90
16417;DHT22;8317;52.186;5.688;2022-08-01T02:02:12;18.80;99.90
16417;DHT22;8317;52.186;5.688;2022-08-01T02:04:43;18.60;99.90
16417;DHT22;8317;52.186;5.688;2022-08-01T02:07:13;18.50;99.90
16417;DHT22;8317;52.186;5.688;2022-08-01T02:09:43;18.80;99.90
16417;DHT22;8317;52.186;5.688;2022-08-01T02:12:11;18.60;99.90
16417;DHT22;8317;52.186;5.688;2022-08-01T02:14:39;18.60;99.90
16417;DHT22;8317;52.186;5.688;2022-08-01T02:17:07;18.50;99.90
16417;DHT22;8317;52.186;5.688;2022-08-01T02:19:37;18.50;99.90
16417;DHT22;8317;52.186;5.688;2022-08-01T02:22:07;18.40;99.90
16417;DHT22;8317;52.186;5.688;2022-08-01T02:24:39;18.60;99.90
16417;DHT22;8317;52.186;5.688;2022-08-01T02:27:10;18.40;99.90
16417;DHT22;8317;52.186;5.688;2022-08-01T02:29:41;18.60;99.90
16417;DHT22;8317;52.186;5.688;2022-08-01T02:32:11;18.50;99.90
16417;DHT22;8317;52.186;5.688;2022-08-01T02:34:41;18.50;99.90
16417;DHT22;8317;52.186;5.688;2022-08-01T02:37:10;18.70;99.90
16417;DHT22;8317;52.186;5.688;2022-08-01T02:39:38;18.40;99.90
16417;DHT22;8317;52.186;5.688;2022-08-01T02:42:08;18.40;99.90
16417;DHT22;8317;52.186;5.688;2022-08-01T02:44:38;18.40;99.90
16417;DHT22;8317;52.186;5.688;2022-08-01T02:47:07;18.50;99.90
16417;DHT22;8317;52.186;5.688;2022-08-01T02:49:39;18.40;99.90
16417;DHT22;8317;52.186;5.688;2022-08-01T02:52:12;18.50;99.90
16417;DHT22;8317;52.186;5.688;2022-08-01T02:54:40;18.50;99.90
16417;DHT22;8317;52.186;5.688;2022-08-01T02:57:09;18.50;99.90
16417;DHT22;8317;52.186;5.688;2022-08-01T02:59:38;18.60;99.90
16417;DHT22;8317;52.186;5.688;2022-08-01T03:02:06;18.70;99.90
16417;DHT22;8317;52.186;5.688;2022-08-01T03:04:35;18.60;99.90
16417;DHT22;8317;52.186;5.688;2022-08-01T03:07:05;18.50;99.90
16417;DHT22;8317;52.186;5.688;2022-08-01T03:09:36;18.50;99.90
16417;DHT22;8317;52.186;5.688;2022-08-01T03:12:11;18.20;99.90
16417;DHT22;8317;52.186;5.688;2022-08-01T03:14:41;18.50;99.90
16417;DHT22;8317;52.186;5.688;2022-08-01T03:17:09;18.40;99.90
16417;DHT22;8317;52.186;5.688;2022-08-01T03:19:38;18.50;99.90
16417;DHT22;8317;52.186;5.688;2022-08-01T03:22:07;18.50;99.90
16417;DHT22;8317;52.186;5.688;2022-08-01T03:24:37;18.30;99.90
16417;DHT22;8317;52.186;5.688;2022-08-01T03:27:06;18.40;99.90
16417;DHT22;8317;52.186;5.688;2022-08-01T03:29:34;18.50;99.90
16417;DHT22;8317;52.186;5.688;2022-08-01T03:32:03;18.50;99.90
16417;DHT22;8317;52.186;5.688;2022-08-01T03:34:31;18.60;99.90
16417;DHT22;8317;52.186;5.688;2022-08-01T03:37:02;18.70;99.90
16417;DHT22;8317;52.186;5.688;2022-08-01T03:39:33;18.60;99.90
16417;DHT22;8317;52.186;5.688;2022-08-01T03:42:07;18.50;99.90
16417;DHT22;8317;52.186;5.688;2022-08-01T03:44:36;18.30;99.90
16417;DHT22;8317;52.186;5.688;2022-08-01T03:47:06;18.30;99.90
16417;DHT22;8317;52.186;5.688;2022-08-01T03:49:37;18.50;99.90
16417;DHT22;8317;52.186;5.688;2022-08-01T03:52:07;18.30;99.90
16417;DHT22;8317;52.186;5.688;2022-08-01T03:54:37;18.20;99.90
16417;DHT22;8317;52.186;5.688;2022-08-01T03:57:08;18.40;99.90
16417;DHT22;8317;52.186;5.688;2022-08-01T03:59:37;18.30;99.90
16417;DHT22;8317;52.186;5.688;2022-08-01T04:02:05;18.20;99.90
16417;DHT22;8317;52.186;5.688;2022-08-01T04:04:32;18.30;99.90
16417;DHT22;8317;52.186;5.688;2022-08-01T04:07:00;18.30;99.90
16417;DHT22;8317;52.186;5.688;2022-08-01T04:09:30;18.20;99.90
16417;DHT22;8317;52.186;5.688;2022-08-01T04:11:58;18.50;99.90
16417;DHT22;8317;52.186;5.688;2022-08-01T04:14:26;18.50;99.90
16417;DHT22;8317;52.186;5.688;2022-08-01T04:16:53;18.40;99.90
16417;DHT22;8317;52.186;5.688;2022-08-01T04:19:20;18.10;99.90
16417;DHT22;8317;52.186;5.688;2022-08-01T04:21:47;18.40;99.90
16417;DHT22;8317;52.186;5.688;2022-08-01T04:24:17;18.40;99.90
16417;DHT22;8317;52.186;5.688;2022-08-01T04:26:46;18.40;99.90
16417;DHT22;8317;52.186;5.688;2022-08-01T04:29:16;18.30;99.90
16417;DHT22;8317;52.186;5.688;2022-08-01T04:31:46;18.40;99.90
16417;DHT22;8317;52.186;5.688;2022-08-01T04:34:16;18.50;99.90
16417;DHT22;8317;52.186;5.688;2022-08-01T04:36:44;18.40;99.90
16417;DHT22;8317;52.186;5.688;2022-08-01T04:39:13;18.30;99.90
16417;DHT22;8317;52.186;5.688;2022-08-01T04:41:42;18.40;99.90
16417;DHT22;8317;52.186;5.688;2022-08-01T04:44:10;18.30;99.90
16417;DHT22;8317;52.186;5.688;2022-08-01T04:46:37;18.40;99.90
16417;DHT22;8317;52.186;5.688;2022-08-01T04:49:06;18.30;99.90
16417;DHT22;8317;52.186;5.688;2022-08-01T04:51:34;18.20;99.90
16417;DHT22;8317;52.186;5.688;2022-08-01T04:54:01;18.10;99.90
16417;DHT22;8317;52.186;5.688;2022-08-01T04:56:29;18.10;99.90
16417;DHT22;8317;52.186;5.688;2022-08-01T04:58:56;18.10;99.90
16417;DHT22;8317;52.186;5.688;2022-08-01T05:01:40;18.00;99.90
16417;DHT22;8317;52.186;5.688;2022-08-01T05:04:08;18.00;99.90
16417;DHT22;8317;52.186;5.688;2022-08-01T05:06:35;18.20;99.90
16417;DHT22;8317;52.186;5.688;2022-08-01T05:09:02;18.00;99.90
16417;DHT22;8317;52.186;5.688;2022-08-01T05:11:29;18.20;99.90
16417;DHT22;8317;52.186;5.688;2022-08-01T05:13:56;18.00;99.90
16417;DHT22;8317;52.186;5.688;2022-08-01T05:16:23;18.20;99.90
16417;DHT22;8317;52.186;5.688;2022-08-01T05:18:50;18.20;99.90
16417;DHT22;8317;52.186;5.688;2022-08-01T05:21:18;18.30;99.90
16417;DHT22;8317;52.186;5.688;2022-08-01T05:23:45;18.30;99.90
16417;DHT22;8317;52.186;5.688;2022-08-01T05:26:14;18.40;99.90
16417;DHT22;8317;52.186;5.688;2022-08-01T05:28:41;18.40;99.90
16417;DHT22;8317;52.186;5.688;2022-08-01T05:31:08;18.40;99.90
16417;DHT22;8317;52.186;5.688;2022-08-01T05:33:35;18.50;99.90
16417;DHT22;8317;52.186;5.688;2022-08-01T05:36:02;18.70;99.90
16417;DHT22;8317;52.186;5.688;2022-08-01T05:38:30;18.60;99.90
16417;DHT22;8317;52.186;5.688;2022-08-01T05:40:57;18.70;99.90
16417;DHT22;8317;52.186;5.688;2022-08-01T05:43:24;18.60;99.90
16417;DHT22;8317;52.186;5.688;2022-08-01T05:45:51;18.60;99.90
16417;DHT22;8317;52.186;5.688;2022-08-01T05:48:18;18.70;99.90
16417;DHT22;8317;52.186;5.688;2022-08-01T05:50:44;18.80;99.90
16417;DHT22;8317;52.186;5.688;2022-08-01T05:53:13;18.80;99.90
16417;DHT22;8317;52.186;5.688;2022-08-01T05:55:41;18.80;99.90
16417;DHT22;8317;52.186;5.688;2022-08-01T05:58:08;18.80;99.90
16417;DHT22;8317;52.186;5.688;2022-08-01T06:00:35;18.80;99.90
16417;DHT22;8317;52.186;5.688;2022-08-01T06:03:02;18.90;99.90
16417;DHT22;8317;52.186;5.688;2022-08-01T06:05:29;18.70;99.90
16417;DHT22;8317;52.186;5.688;2022-08-01T06:07:56;19.00;99.90
16417;DHT22;8317;52.186;5.688;2022-08-01T06:10:23;18.90;99.90
16417;DHT22;8317;52.186;5.688;2022-08-01T06:12:51;18.80;99.90
16417;DHT22;8317;52.186;5.688;2022-08-01T06:15:18;18.90;99.90
16417;DHT22;8317;52.186;5.688;2022-08-01T06:17:45;19.20;99.90
16417;DHT22;8317;52.186;5.688;2022-08-01T06:20:12;19.20;99.90
16417;DHT22;8317;52.186;5.688;2022-08-01T06:22:39;19.00;99.90
16417;DHT22;8317;52.186;5.688;2022-08-01T06:25:07;19.20;99.90
16417;DHT22;8317;52.186;5.688;2022-08-01T06:27:35;19.20;99.90
16417;DHT22;8317;52.186;5.688;2022-08-01T06:30:04;19.20;99.90
16417;DHT22;8317;52.186;5.688;2022-08-01T06:32:33;19.10;99.90
16417;DHT22;8317;52.186;5.688;2022-08-01T06:35:00;19.10;99.90
16417;DHT22;8317;52.186;5.688;2022-08-01T06:37:28;19.30;99.90
16417;DHT22;8317;52.186;5.688;2022-08-01T06:39:56;19.40;99.90
16417;DHT22;8317;52.186;5.688;2022-08-01T06:42:22;19.50;99.90
16417;DHT22;8317;52.186;5.688;2022-08-01T06:44:49;19.60;99.90
16417;DHT22;8317;52.186;5.688;2022-08-01T06:47:18;19.60;99.90
16417;DHT22;8317;52.186;5.688;2022-08-01T06:49:44;19.50;99.90
16417;DHT22;8317;52.186;5.688;2022-08-01T06:52:11;19.50;99.90
16417;DHT22;8317;52.186;5.688;2022-08-01T06:54:38;19.50;99.90
16417;DHT22;8317;52.186;5.688;2022-08-01T06:57:05;19.60;99.90
16417;DHT22;8317;52.186;5.688;2022-08-01T06:59:33;19.50;99.90
16417;DHT22;8317;52.186;5.688;2022-08-01T07:02:00;19.40;99.90
16417;DHT22;8317;52.186;5.688;2022-08-01T07:04:29;19.30;99.90
16417;DHT22;8317;52.186;5.688;2022-08-01T07:06:56;19.30;99.90
16417;DHT22;8317;52.186;5.688;2022-08-01T07:09:23;19.40;99.90
16417;DHT22;8317;52.186;5.688;2022-08-01T07:11:50;19.30;99.90
16417;DHT22;8317;52.186;5.688;2022-08-01T07:14:18;19.40;99.90
16417;DHT22;8317;52.186;5.688;2022-08-01T07:16:45;19.50;99.90
16417;DHT22;8317;52.186;5.688;2022-08-01T07:19:12;19.30;99.90
16417;DHT22;8317;52.186;5.688;2022-08-01T07:21:40;19.30;99.90
16417;DHT22;8317;52.186;5.688;2022-08-01T07:24:09;19.40;99.90
16417;DHT22;8317;52.186;5.688;2022-08-01T07:26:36;19.10;99.90
16417;DHT22;8317;52.186;5.688;2022-08-01T07:29:03;19.30;99.90
16417;DHT22;8317;52.186;5.688;2022-08-01T07:31:29;19.20;99.90
16417;DHT22;8317;52.186;5.688;2022-08-01T07:33:56;19.30;99.90
16417;DHT22;8317;52.186;5.688;2022-08-01T07:36:23;19.50;99.90
16417;DHT22;8317;52.186;5.688;2022-08-01T07:38:52;19.50;99.90
16417;DHT22;8317;52.186;5.688;2022-08-01T07:41:19;19.40;99.90
16417;DHT22;8317;52.186;5.688;2022-08-01T07:43:46;19.40;99.90
16417;DHT22;8317;52.186;5.688;2022-08-01T07:46:15;19.40;99.90
16417;DHT22;8317;52.186;5.688;2022-08-01T07:48:42;19.20;99.90
16417;DHT22;8317;52.186;5.688;2022-08-01T07:51:09;19.40;99.90
16417;DHT22;8317;52.186;5.688;2022-08-01T07:53:37;19.50;99.90
16417;DHT22;8317;52.186;5.688;2022-08-01T07:56:06;19.60;99.90
16417;DHT22;8317;52.186;5.688;2022-08-01T07:58:33;19.50;99.90
16417;DHT22;8317;52.186;5.688;2022-08-01T08:01:00;19.70;99.90
16417;DHT22;8317;52.186;5.688;2022-08-01T08:03:27;19.60;99.90
16417;DHT22;8317;52.186;5.688;2022-08-01T08:05:54;19.30;99.90
16417;DHT22;8317;52.186;5.688;2022-08-01T08:08:21;19.30;99.90
16417;DHT22;8317;52.186;5.688;2022-08-01T08:10:49;19.30;99.90
16417;DHT22;8317;52.186;5.688;2022-08-01T08:13:18;19.10;99.90
16417;DHT22;8317;52.186;5.688;2022-08-01T08:15:44;19.30;99.90
16417;DHT22;8317;52.186;5.688;2022-08-01T08:18:11;19.10;99.90
16417;DHT22;8317;52.186;5.688;2022-08-01T08:20:38;19.20;99.90
16417;DHT22;8317;52.186;5.688;2022-08-01T08:23:05;18.90;99.90
16417;DHT22;8317;52.186;5.688;2022-08-01T08:25:53;19.10;99.90
16417;DHT22;8317;52.186;5.688;2022-08-01T08:28:21;18.90;99.90
16417;DHT22;8317;52.186;5.688;2022-08-01T08:30:48;19.10;99.90
16417;DHT22;8317;52.186;5.688;2022-08-01T08:33:15;19.40;99.90
16417;DHT22;8317;52.186;5.688;2022-08-01T08:35:42;19.40;99.90
16417;DHT22;8317;52.186;5.688;2022-08-01T08:38:09;19.30;99.90
16417;DHT22;8317;52.186;5.688;2022-08-01T08:40:36;19.50;99.90
16417;DHT22;8317;52.186;5.688;2022-08-01T08:43:04;19.40;99.90
16417;DHT22;8317;52.186;5.688;2022-08-01T08:45:33;19.60;99.90
16417;DHT22;8317;52.186;5.688;2022-08-01T08:48:00;19.50;99.90
16417;DHT22;8317;52.186;5.688;2022-08-01T08:50:28;19.70;99.90
16417;DHT22;8317;52.186;5.688;2022-08-01T08:52:55;19.60;99.90
16417;DHT22;8317;52.186;5.688;2022-08-01T08:55:23;20.00;99.90
16417;DHT22;8317;52.186;5.688;2022-08-01T08:57:50;19.90;99.90
16417;DHT22;8317;52.186;5.688;2022-08-01T09:00:18;20.50;99.90
16417;DHT22;8317;52.186;5.688;2022-08-01T09:02:47;20.40;99.90
16417;DHT22;8317;52.186;5.688;2022-08-01T09:05:16;20.70;99.90
16417;DHT22;8317;52.186;5.688;2022-08-01T09:07:44;20.90;99.90
16417;DHT22;8317;52.186;5.688;2022-08-01T09:10:11;20.90;99.90
16417;DHT22;8317;52.186;5.688;2022-08-01T09:12:38;21.00;99.90
16417;DHT22;8317;52.186;5.688;2022-08-01T09:15:05;21.10;99.90
16417;DHT22;8317;52.186;5.688;2022-08-01T09:17:40;21.40;99.90
16417;DHT22;8317;52.186;5.688;2022-08-01T09:20:22;20.90;99.90
16417;DHT22;8317;52.186;5.688;2022-08-01T09:22:49;20.90;99.90
16417;DHT22;8317;52.186;5.688;2022-08-01T09:25:16;21.10;99.90
16417;DHT22;8317;52.186;5.688;2022-08-01T09:27:43;20.80;99.90
16417;DHT22;8317;52.186;5.688;2022-08-01T09:30:12;20.80;99.90
16417;DHT22;8317;52.186;5.688;2022-08-01T09:32:56;21.10;99.90
16417;DHT22;8317;52.186;5.688;2022-08-01T09:35:26;20.90;99.90
16417;DHT22;8317;52.186;5.688;2022-08-01T09:38:12;21.00;99.90
16417;DHT22;8317;52.186;5.688;2022-08-01T09:40:46;21.60;99.90
16417;DHT22;8317;52.186;5.688;2022-08-01T09:43:14;21.90;99.90
16417;DHT22;8317;52.186;5.688;2022-08-01T09:45:41;21.90;99.90
16417;DHT22;8317;52.186;5.688;2022-08-01T09:48:08;21.60;99.90
16417;DHT22;8317;52.186;5.688;2022-08-01T09:50:41;21.60;99.90
16417;DHT22;8317;52.186;5.688;2022-08-01T09:53:08;21.80;99.90
16417;DHT22;8317;52.186;5.688;2022-08-01T09:55:36;21.60;99.90
16417;DHT22;8317;52.186;5.688;2022-08-01T09:58:03;21.70;99.90
16417;DHT22;8317;52.186;5.688;2022-08-01T10:00:31;21.70;99.90
16417;DHT22;8317;52.186;5.688;2022-08-01T10:02:58;21.50;99.90
16417;DHT22;8317;52.186;5.688;2022-08-01T10:05:32;21.60;99.90
16417;DHT22;8317;52.186;5.688;2022-08-01T10:08:03;21.40;99.90
16417;DHT22;8317;52.186;5.688;2022-08-01T10:10:31;21.30;99.90
16417;DHT22;8317;52.186;5.688;2022-08-01T10:12:59;21.30;99.90
16417;DHT22;8317;52.186;5.688;2022-08-01T10:15:27;21.30;99.90
16417;DHT22;8317;52.186;5.688;2022-08-01T10:17:55;21.10;99.90
16417;DHT22;8317;52.186;5.688;2022-08-01T10:20:24;21.20;99.90
16417;DHT22;8317;52.186;5.688;2022-08-01T10:22:53;21.10;99.90
16417;DHT22;8317;52.186;5.688;2022-08-01T10:25:22;21.20;99.90
16417;DHT22;8317;52.186;5.688;2022-08-01T10:27:50;21.10;99.90
16417;DHT22;8317;52.186;5.688;2022-08-01T10:30:21;21.10;99.90
16417;DHT22;8317;52.186;5.688;2022-08-01T10:32:48;21.10;99.90
16417;DHT22;8317;52.186;5.688;2022-08-01T10:35:16;21.50;99.90
16417;DHT22;8317;52.186;5.688;2022-08-01T10:37:44;21.40;99.90
16417;DHT22;8317;52.186;5.688;2022-08-01T10:40:13;21.60;99.90
16417;DHT22;8317;52.186;5.688;2022-08-01T10:42:42;21.70;99.90
16417;DHT22;8317;52.186;5.688;2022-08-01T10:45:11;21.90;99.90
16417;DHT22;8317;52.186;5.688;2022-08-01T10:47:42;21.80;99.90
16417;DHT22;8317;52.186;5.688;2022-08-01T10:50:15;22.10;99.90
16417;DHT22;8317;52.186;5.688;2022-08-01T10:53:09;22.10;99.90
16417;DHT22;8317;52.186;5.688;2022-08-01T10:55:48;22.30;99.90
16417;DHT22;8317;52.186;5.688;2022-08-01T10:58:22;22.40;99.90
16417;DHT22;8317;52.186;5.688;2022-08-01T11:00:56;22.30;99.90
16417;DHT22;8317;52.186;5.688;2022-08-01T11:03:38;22.30;99.90
16417;DHT22;8317;52.186;5.688;2022-08-01T11:06:05;22.40;99.90
16417;DHT22;8317;52.186;5.688;2022-08-01T11:08:36;22.50;99.90
16417;DHT22;8317;52.186;5.688;2022-08-01T11:11:06;22.50;99.90
16417;DHT22;8317;52.186;5.688;2022-08-01T11:14:04;22.60;99.90
16417;DHT22;8317;52.186;5.688;2022-08-01T11:16:36;22.30;99.90
16417;DHT22;8317;52.186;5.688;2022-08-01T11:19:03;22.60;99.90
16417;DHT22;8317;52.186;5.688;2022-08-01T11:21:58;22.50;99.90
16417;DHT22;8317;52.186;5.688;2022-08-01T11:24:54;22.60;99.90
16417;DHT22;8317;52.186;5.688;2022-08-01T11:27:26;22.70;99.90
16417;DHT22;8317;52.186;5.688;2022-08-01T11:30:23;22.70;99.90
16417;DHT22;8317;52.186;5.688;2022-08-01T11:32:53;22.50;99.90
16417;DHT22;8317;52.186;5.688;2022-08-01T11:35:22;22.70;99.90
16417;DHT22;8317;52.186;5.688;2022-08-01T11:37:50;22.50;99.90
16417;DHT22;8317;52.186;5.688;2022-08-01T11:40:19;22.50;99.90
16417;DHT22;8317;52.186;5.688;2022-08-01T11:42:47;22.60;99.90
16417;DHT22;8317;52.186;5.688;2022-08-01T11:45:15;22.30;99.90
16417;DHT22;8317;52.186;5.688;2022-08-01T11:47:47;22.40;99.90
16417;DHT22;8317;52.186;5.688;2022-08-01T11:50:31;22.60;99.90
16417;DHT22;8317;52.186;5.688;2022-08-01T11:52:59;22.70;99.90
16417;DHT22;8317;52.186;5.688;2022-08-01T11:55:27;22.70;99.90
16417;DHT22;8317;52.186;5.688;2022-08-01T11:57:59;22.60;99.90
16417;DHT22;8317;52.186;5.688;2022-08-01T12:00:27;22.70;99.90
16417;DHT22;8317;52.186;5.688;2022-08-01T12:03:02;22.60;99.90
16417;DHT22;8317;52.186;5.688;2022-08-01T12:05:31;22.70;99.90
16417;DHT22;8317;52.186;5.688;2022-08-01T12:07:59;22.70;99.90
16417;DHT22;8317;52.186;5.688;2022-08-01T12:10:27;22.70;99.90
16417;DHT22;8317;52.186;5.688;2022-08-01T12:13:00;22.70;99.90
16417;DHT22;8317;52.186;5.688;2022-08-01T12:15:31;22.70;99.90
16417;DHT22;8317;52.186;5.688;2022-08-01T12:18:01;22.50;99.90
16417;DHT22;8317;52.186;5.688;2022-08-01T12:20:31;22.70;99.90
16417;DHT22;8317;52.186;5.688;2022-08-01T12:23:00;22.80;99.90
16417;DHT22;8317;52.186;5.688;2022-08-01T12:25:28;22.80;99.90
16417;DHT22;8317;52.186;5.688;2022-08-01T12:27:55;22.90;99.90
16417;DHT22;8317;52.186;5.688;2022-08-01T12:30:25;23.00;99.90
16417;DHT22;8317;52.186;5.688;2022-08-01T12:32:54;23.20;99.90
16417;DHT22;8317;52.186;5.688;2022-08-01T12:35:24;23.20;99.90
16417;DHT22;8317;52.186;5.688;2022-08-01T12:37:53;23.20;99.90
16417;DHT22;8317;52.186;5.688;2022-08-01T12:40:21;23.40;99.90
16417;DHT22;8317;52.186;5.688;2022-08-01T12:42:50;23.60;99.90
16417;DHT22;8317;52.186;5.688;2022-08-01T12:45:21;23.70;99.90
16417;DHT22;8317;52.186;5.688;2022-08-01T12:47:51;23.70;99.90
16417;DHT22;8317;52.186;5.688;2022-08-01T12:50:20;23.80;99.90
16417;DHT22;8317;52.186;5.688;2022-08-01T12:52:49;23.80;99.90
16417;DHT22;8317;52.186;5.688;2022-08-01T12:55:16;23.70;99.90
16417;DHT22;8317;52.186;5.688;2022-08-01T12:57:47;23.80;99.90
16417;DHT22;8317;52.186;5.688;2022-08-01T13:00:19;23.80;99.90
16417;DHT22;8317;52.186;5.688;2022-08-01T13:02:47;24.00;99.90
16417;DHT22;8317;52.186;5.688;2022-08-01T13:05:15;24.00;99.90
16417;DHT22;8317;52.186;5.688;2022-08-01T13:07:49;23.80;99.90
16417;DHT22;8317;52.186;5.688;2022-08-01T13:10:26;23.80;99.90
16417;DHT22;8317;52.186;5.688;2022-08-01T13:12:54;23.70;99.90
16417;DHT22;8317;52.186;5.688;2022-08-01T13:15:27;23.80;99.90
16417;DHT22;8317;52.186;5.688;2022-08-01T13:17:56;24.00;99.90
16417;DHT22;8317;52.186;5.688;2022-08-01T13:20:31;24.20;99.90
16417;DHT22;8317;52.186;5.688;2022-08-01T13:23:14;23.90;99.90
16417;DHT22;8317;52.186;5.688;2022-08-01T13:25:53;23.50;99.90
16417;DHT22;8317;52.186;5.688;2022-08-01T13:28:22;23.50;99.90
16417;DHT22;8317;52.186;5.688;2022-08-01T13:30:57;23.30;99.90
16417;DHT22;8317;52.186;5.688;2022-08-01T13:33:26;23.50;99.90
16417;DHT22;8317;52.186;5.688;2022-08-01T13:35:54;23.70;99.90
16417;DHT22;8317;52.186;5.688;2022-08-01T13:38:22;23.60;99.90
16417;DHT22;8317;52.186;5.688;2022-08-01T13:41:03;23.70;99.90
16417;DHT22;8317;52.186;5.688;2022-08-01T13:43:31;23.90;99.90
16417;DHT22;8317;52.186;5.688;2022-08-01T13:45:58;24.10;99.90
16417;DHT22;8317;52.186;5.688;2022-08-01T13:48:25;24.10;99.90
16417;DHT22;8317;52.186;5.688;2022-08-01T13:50:51;24.10;99.90
16417;DHT22;8317;52.186;5.688;2022-08-01T13:53:18;24.20;99.90
16417;DHT22;8317;52.186;5.688;2022-08-01T13:55:47;24.20;99.90
16417;DHT22;8317;52.186;5.688;2022-08-01T13:58:13;24.20;99.90
16417;DHT22;8317;52.186;5.688;2022-08-01T14:00:41;24.10;99.90
16417;DHT22;8317;52.186;5.688;2022-08-01T14:03:07;24.20;99.90
16417;DHT22;8317;52.186;5.688;2022-08-01T14:05:36;24.30;99.90
16417;DHT22;8317;52.186;5.688;2022-08-01T14:08:03;24.30;99.90
16417;DHT22;8317;52.186;5.688;2022-08-01T14:10:30;24.40;99.90
16417;DHT22;8317;52.186;5.688;2022-08-01T14:12:59;24.40;99.90
16417;DHT22;8317;52.186;5.688;2022-08-01T14:15:26;24.10;99.90
16417;DHT22;8317;52.186;5.688;2022-08-01T14:17:53;24.30;99.90
16417;DHT22;8317;52.186;5.688;2022-08-01T14:20:20;24.30;99.90
16417;DHT22;8317;52.186;5.688;2022-08-01T14:22:47;24.10;99.90
16417;DHT22;8317;52.186;5.688;2022-08-01T14:25:14;24.00;99.90
16417;DHT22;8317;52.186;5.688;2022-08-01T14:27:43;23.80;99.90
16417;DHT22;8317;52.186;5.688;2022-08-01T14:30:12;23.90;99.90
16417;DHT22;8317;52.186;5.688;2022-08-01T14:32:40;23.80;99.90
16417;DHT22;8317;52.186;5.688;2022-08-01T14:35:07;23.80;99.90
16417;DHT22;8317;52.186;5.688;2022-08-01T14:37:34;24.00;99.90
16417;DHT22;8317;52.186;5.688;2022-08-01T14:40:01;24.00;99.90
16417;DHT22;8317;52.186;5.688;2022-08-01T14:42:31;23.90;99.90
16417;DHT22;8317;52.186;5.688;2022-08-01T14:44:58;24.10;99.90
16417;DHT22;8317;52.186;5.688;2022-08-01T14:47:26;24.00;99.90
16417;DHT22;8317;52.186;5.688;2022-08-01T14:49:53;23.70;99.90
16417;DHT22;8317;52.186;5.688;2022-08-01T14:52:20;23.60;99.90
16417;DHT22;8317;52.186;5.688;2022-08-01T14:54:47;23.80;99.90
16417;DHT22;8317;52.186;5.688;2022-08-01T14:57:13;23.60;99.90
16417;DHT22;8317;52.186;5.688;2022-08-01T14:59:43;23.50;99.90
16417;DHT22;8317;52.186;5.688;2022-08-01T15:02:10;23.50;99.90
16417;DHT22;8317;52.186;5.688;2022-08-01T15:04:40;23.70;99.90
16417;DHT22;8317;52.186;5.688;2022-08-01T15:07:07;23.70;99.90
16417;DHT22;8317;52.186;5.688;2022-08-01T15:09:34;23.70;99.90
16417;DHT22;8317;52.186;5.688;2022-08-01T15:12:01;23.40;99.90
16417;DHT22;8317;52.186;5.688;2022-08-01T15:14:28;23.50;99.90
16417;DHT22;8317;52.186;5.688;2022-08-01T15:17:12;23.50;99.90
16417;DHT22;8317;52.186;5.688;2022-08-01T15:19:40;23.50;99.90
16417;DHT22;8317;52.186;5.688;2022-08-01T15:22:07;23.50;99.90
16417;DHT22;8317;52.186;5.688;2022-08-01T15:24:34;23.50;99.90
16417;DHT22;8317;52.186;5.688;2022-08-01T15:27:01;23.40;99.90
16417;DHT22;8317;52.186;5.688;2022-08-01T15:29:28;23.30;99.90
16417;DHT22;8317;52.186;5.688;2022-08-01T15:31:55;23.30;99.90
16417;DHT22;8317;52.186;5.688;2022-08-01T15:34:22;23.00;99.90
16417;DHT22;8317;52.186;5.688;2022-08-01T15:36:50;23.10;99.90
16417;DHT22;8317;52.186;5.688;2022-08-01T15:39:18;23.00;99.90
16417;DHT22;8317;52.186;5.688;2022-08-01T15:41:44;23.00;99.90
16417;DHT22;8317;52.186;5.688;2022-08-01T15:44:12;22.80;99.90
16417;DHT22;8317;52.186;5.688;2022-08-01T15:46:39;22.80;99.90
16417;DHT22;8317;52.186;5.688;2022-08-01T15:49:06;22.80;99.90
16417;DHT22;8317;52.186;5.688;2022-08-01T15:51:33;22.50;99.90
16417;DHT22;8317;52.186;5.688;2022-08-01T15:54:01;22.40;99.90
16417;DHT22;8317;52.186;5.688;2022-08-01T15:56:31;22.50;99.90
16417;DHT22;8317;52.186;5.688;2022-08-01T15:58:58;22.40;99.90
16417;DHT22;8317;52.186;5.688;2022-08-01T16:01:25;22.40;99.90